Time,TemperatureF,DewpointF,PressureIn,WindDirection,WindDirectionDegrees,WindSpeedMPH,WindSpeedGustMPH,Humidity,HourlyPrecipIn,Conditions,Clouds,dailyrainin,SoftwareType,DateUTC
2013-08-21 00:11:00,59.0,26.0,-100.00,NE,45,6.0,11.0,29,-99.99,,,-99.99,,2013-08-21 07:11:00,
2013-08-21 00:42:00,57.0,25.0,-100.00,NE,45,5.0,8.0,28,-99.99,,,-99.99,,2013-08-21 07:42:00,
2013-08-21 00:53:00,58.0,25.0,-100.00,NE,45,6.0,9.0,28,-99.99,,,-99.99,,2013-08-21 07:53:00,
2013-08-21 01:12:00,58.0,25.0,-100.00,NE,45,4.0,9.0,28,-99.99,,,-99.99,,2013-08-21 08:12:00,
2013-08-21 01:22:00,58.0,26.0,-100.00,North,0,3.0,8.0,30,-99.99,,,-99.99,,2013-08-21 08:22:00,
2013-08-21 01:43:00,58.0,26.0,-100.00,NE,45,1.0,6.0,30,-99.99,,,-99.99,,2013-08-21 08:43:00,
2013-08-21 01:52:00,59.0,28.0,-100.00,NE,45,5.0,9.0,31,-99.99,,,-99.99,,2013-08-21 08:52:00,
2013-08-21 02:22:00,58.0,28.0,-100.00,NE,45,6.0,8.0,32,-99.99,,,-99.99,,2013-08-21 09:22:00,
2013-08-21 02:43:00,59.0,26.0,-100.00,NE,45,7.0,10.0,29,-99.99,,,-99.99,,2013-08-21 09:43:00,
2013-08-21 02:53:00,57.0,26.0,-100.00,NE,45,5.0,8.0,30,-99.99,,,-99.99,,2013-08-21 09:53:00,
2013-08-21 03:12:00,58.0,26.0,-100.00,NE,45,5.0,10.0,29,-99.99,,,-99.99,,2013-08-21 10:12:00,
2013-08-21 03:23:00,57.0,25.0,-100.00,NE,45,6.0,9.0,28,-99.99,,,-99.99,,2013-08-21 10:23:00,
2013-08-21 03:43:00,57.0,26.0,-100.00,NE,45,6.0,9.0,30,-99.99,,,-99.99,,2013-08-21 10:43:00,
2013-08-21 03:52:00,58.0,27.0,-100.00,NE,45,5.0,7.0,31,-99.99,,,-99.99,,2013-08-21 10:52:00,
2013-08-21 04:42:00,59.0,27.0,-100.00,NE,45,5.0,10.0,29,-99.99,,,-99.99,,2013-08-21 11:42:00,
2013-08-21 04:52:00,58.0,29.0,-100.00,NE,45,3.0,8.0,33,-99.99,,,-99.99,,2013-08-21 11:52:00,
2013-08-21 09:43:00,65.0,36.0,-100.00,SE,135,3.0,4.0,34,-99.99,,,-99.99,,2013-08-21 16:43:00,
2013-08-21 09:53:00,67.0,32.0,-100.00,East,90,1.0,4.0,27,-99.99,,,-99.99,,2013-08-21 16:53:00,
2013-08-21 10:12:00,68.0,31.0,-100.00,East,90,4.0,5.0,26,-99.99,,,-99.99,,2013-08-21 17:12:00,
2013-08-21 10:23:00,68.0,33.0,-100.00,East,90,3.0,7.0,27,-99.99,,,-99.99,,2013-08-21 17:23:00,
2013-08-21 10:43:00,66.0,35.0,-100.00,East,90,5.0,8.0,31,-99.99,,,-99.99,,2013-08-21 17:43:00,
2013-08-21 10:53:00,66.0,38.0,-100.00,East,90,6.0,8.0,35,-99.99,,,-99.99,,2013-08-21 17:53:00,
2013-08-21 11:12:00,66.0,38.0,-100.00,SE,135,6.0,9.0,35,-99.99,,,-99.99,,2013-08-21 18:12:00,
2013-08-21 11:22:00,67.0,37.0,-100.00,East,90,5.0,9.0,34,-99.99,,,-99.99,,2013-08-21 18:22:00,
2013-08-21 11:42:00,65.0,38.0,-100.00,SE,135,6.0,8.0,36,-99.99,,,-99.99,,2013-08-21 18:42:00,
2013-08-21 11:52:00,66.0,37.0,-100.00,NE,45,5.0,9.0,34,-99.99,,,-99.99,,2013-08-21 18:52:00,
2013-08-21 12:11:00,68.0,37.0,-100.00,NE,45,6.0,9.0,32,-99.99,,,-99.99,,2013-08-21 19:11:00,
2013-08-21 12:22:00,68.0,35.0,-100.00,NE,45,6.0,10.0,29,-99.99,,,-99.99,,2013-08-21 19:22:00,
2013-08-21 12:42:00,68.0,35.0,-100.00,East,90,7.0,11.0,30,-99.99,,,-99.99,,2013-08-21 19:42:00,
2013-08-21 12:52:00,68.0,37.0,-100.00,NE,45,6.0,9.0,32,-99.99,,,-99.99,,2013-08-21 19:52:00,
2013-08-21 13:11:00,70.0,37.0,-100.00,NE,45,6.0,10.0,30,-99.99,,,-99.99,,2013-08-21 20:11:00,
2013-08-21 13:22:00,69.0,37.0,-100.00,North,0,5.0,9.0,31,-99.99,,,-99.99,,2013-08-21 20:22:00,
2013-08-21 13:42:00,68.0,38.0,-100.00,NE,45,8.0,11.0,33,-99.99,,,-99.99,,2013-08-21 20:42:00,
2013-08-21 13:52:00,68.0,37.0,-100.00,NE,45,6.0,11.0,32,-99.99,,,-99.99,,2013-08-21 20:52:00,
2013-08-21 14:12:00,69.0,37.0,-100.00,NE,45,7.0,10.0,31,-99.99,,,-99.99,,2013-08-21 21:12:00,
2013-08-21 14:21:00,70.0,35.0,-100.00,NE,45,4.0,9.0,28,-99.99,,,-99.99,,2013-08-21 21:21:00,
2013-08-21 14:44:00,70.0,36.0,-100.00,NE,45,7.0,9.0,28,-99.99,,,-99.99,,2013-08-21 21:44:00,
2013-08-21 14:54:00,73.0,35.0,-100.00,NE,45,3.0,10.0,25,-99.99,,,-99.99,,2013-08-21 21:54:00,
2013-08-21 15:14:00,72.0,35.0,-100.00,East,90,4.0,9.0,25,-99.99,,,-99.99,,2013-08-21 22:14:00,
2013-08-21 15:43:00,72.0,34.0,-100.00,East,90,6.0,11.0,25,-99.99,,,-99.99,,2013-08-21 22:43:00,
2013-08-21 15:53:00,72.0,34.0,-100.00,East,90,6.0,12.0,25,-99.99,,,-99.99,,2013-08-21 22:53:00,
2013-08-21 16:12:00,72.0,34.0,-100.00,East,90,6.0,11.0,24,-99.99,,,-99.99,,2013-08-21 23:12:00,
2013-08-21 16:22:00,73.0,34.0,-100.00,NE,45,7.0,13.0,24,-99.99,,,-99.99,,2013-08-21 23:22:00,
2013-08-21 16:42:00,72.0,33.0,-100.00,East,90,8.0,12.0,24,-99.99,,,-99.99,,2013-08-21 23:42:00,
2013-08-21 16:53:00,71.0,33.0,-100.00,NE,45,7.0,11.0,24,-99.99,,,-99.99,,2013-08-21 23:53:00,
2013-08-21 17:12:00,71.0,32.0,-100.00,East,90,9.0,12.0,24,-99.99,,,-99.99,,2013-08-22 00:12:00,
2013-08-21 17:21:00,70.0,32.0,-100.00,East,90,8.0,16.0,24,-99.99,,,-99.99,,2013-08-22 00:21:00,
2013-08-21 17:42:00,71.0,31.0,-100.00,East,90,9.0,13.0,23,-99.99,,,-99.99,,2013-08-22 00:42:00,
2013-08-21 17:52:00,70.0,30.0,-100.00,East,90,10.0,16.0,22,-99.99,,,-99.99,,2013-08-22 00:52:00,
2013-08-21 18:11:00,70.0,30.0,-100.00,NE,45,8.0,15.0,22,-99.99,,,-99.99,,2013-08-22 01:11:00,
2013-08-21 18:22:00,70.0,29.0,-100.00,East,90,9.0,13.0,22,-99.99,,,-99.99,,2013-08-22 01:22:00,
2013-08-21 18:42:00,70.0,29.0,-100.00,NE,45,8.0,12.0,22,-99.99,,,-99.99,,2013-08-22 01:42:00,
2013-08-21 18:52:00,68.0,29.0,-100.00,NE,45,8.0,12.0,23,-99.99,,,-99.99,,2013-08-22 01:52:00,
2013-08-21 19:12:00,68.0,29.0,-100.00,NE,45,6.0,11.0,23,-99.99,,,-99.99,,2013-08-22 02:12:00,
2013-08-21 19:22:00,68.0,30.0,-100.00,NE,45,6.0,10.0,24,-99.99,,,-99.99,,2013-08-22 02:22:00,
2013-08-21 20:12:00,67.0,29.0,-100.00,NE,45,6.0,12.0,24,-99.99,,,-99.99,,2013-08-22 03:12:00,
2013-08-21 20:22:00,65.0,30.0,-100.00,NE,45,4.0,8.0,26,-99.99,,,-99.99,,2013-08-22 03:22:00,
2013-08-21 20:45:00,65.0,30.0,-100.00,NE,45,4.0,7.0,27,-99.99,,,-99.99,,2013-08-22 03:45:00,
2013-08-21 20:54:00,64.0,31.0,-100.00,NE,45,4.0,7.0,29,-99.99,,,-99.99,,2013-08-22 03:54:00,
2013-08-21 21:14:00,63.0,31.0,-100.00,NE,45,3.0,8.0,29,-99.99,,,-99.99,,2013-08-22 04:14:00,
2013-08-21 21:23:00,63.0,31.0,-100.00,North,0,1.0,6.0,29,-99.99,,,-99.99,,2013-08-22 04:23:00,
2013-08-21 21:44:00,64.0,30.0,-100.00,NE,45,3.0,7.0,28,-99.99,,,-99.99,,2013-08-22 04:44:00,
2013-08-21 21:54:00,63.0,30.0,-100.00,NE,45,2.0,4.0,29,-99.99,,,-99.99,,2013-08-22 04:54:00,
2013-08-21 22:12:00,63.0,30.0,-100.00,NE,45,2.0,5.0,29,-99.99,,,-99.99,,2013-08-22 05:12:00,
2013-08-21 22:22:00,64.0,29.0,-100.00,NE,45,1.0,3.0,27,-99.99,,,-99.99,,2013-08-22 05:22:00,
2013-08-21 22:43:00,66.0,29.0,-100.00,NE,45,3.0,5.0,25,-99.99,,,-99.99,,2013-08-22 05:43:00,
2013-08-21 22:52:00,61.0,31.0,-100.00,East,90,5.0,8.0,32,-99.99,,,-99.99,,2013-08-22 05:52:00,
2013-08-21 23:12:00,61.0,31.0,-100.00,NE,45,5.0,7.0,32,-99.99,,,-99.99,,2013-08-22 06:12:00,
2013-08-21 23:22:00,60.0,31.0,-100.00,North,0,3.0,4.0,33,-99.99,,,-99.99,,2013-08-22 06:22:00,
2013-08-21 23:42:00,61.0,31.0,-100.00,NE,45,2.0,4.0,32,-99.99,,,-99.99,,2013-08-22 06:42:00,
2013-08-21 23:52:00,61.0,30.0,-100.00,North,0,1.0,6.0,31,-99.99,,,-99.99,,2013-08-22 06:52:00,